Caldas1b

Flughäfen (METAR Berichte)


LPPT - Lisboa
Entfernung von der Station: SSO 78km
aktuell: 20/06/2024 20:30
Stark bewölkt
Stark bewölkt
 Wind aus N
Wind: N 22 km/h
Temperatur: 18°C
Taupunkt: 12°C
Luftfeuchte: 68%
Luftdruck: 1022 hPa
Wolken: Stark bewölkt
Sichtbarkeit: 10 km
Trübung: Leicht bewölkt 732 m
Stark bewölkt 914 m
2024/06/20 19:30 LPPT 201930Z 35012KT 9999 FEW024 BKN030 18/12 Q1022
LPPR - Porto
Entfernung von der Station: NW 205km
aktuell: 20/06/2024 20:30
Klar
Klar
 Wind aus NNW
Wind: NNW 19 km/h
Temperatur: 17°C
Taupunkt: 13°C
Luftfeuchte: 77%
Luftdruck: 1020 hPa
Zusammenfassung: Klar
Sichtbarkeit: größer als 10 km
2024/06/20 19:30 LPPR 201930Z 34010KT 310V010 CAVOK 17/13 Q1020
 
LPFR - Faro
Entfernung von der Station: SO 286km
aktuell: 20/06/2024 20:30
Klar
Klar
 Wind aus NW
Wind: NW 24 km/h
Temperatur: 23°C
Taupunkt: 11°C
Luftfeuchte: 47%
Luftdruck: 1019 hPa
Zusammenfassung: Klar
Sichtbarkeit: größer als 10 km
2024/06/20 19:30 LPFR 201930Z 31013KT CAVOK 23/11 Q1019
LPBJ - Beja
Entfernung von der Station: OSO 190km
aktuell: 20/06/2024 20:00
Leicht bewölkt
Leicht bewölkt
 Wind aus NW
Wind: NW 9 km/h
Temperatur: 21°C
Taupunkt: 12°C
Luftfeuchte: 57%
Luftdruck: 1020 hPa
Wolken: Leicht bewölkt
Sichtbarkeit: 10 km
Trübung: Leicht bewölkt 914 m
2024/06/20 19:00 LPBJ 201900Z 32005KT 9999 FEW030 21/12 Q1020
 
LPMA - Funchal
Entfernung von der Station: SSW 1025km
aktuell: 20/06/2024 20:30
Teilweise bewölkt
Teilweise bewölkt
 Wind aus NNO
Wind: NNO 24 km/h, Windböen: 46 km/h
Temperatur: 21°C
Taupunkt: 14°C
Luftfeuchte: 64%
Luftdruck: 1024 hPa
Wolken: Teilweise bewölkt
Sichtbarkeit: 10 km
Trübung: Teilweise bewölkt 488 m
2024/06/20 19:30 LPMA 201930Z 02013G25KT 350V080 9999 SCT016 21/14 Q1024
LPPD - Ponta Delgada
Entfernung von der Station: W 1450km
aktuell: 20/06/2024 20:30
Teilweise bewölkt
Teilweise bewölkt
 Wind aus SO
Wind: SO 13 km/h
Temperatur: 20°C
Taupunkt: 13°C
Luftfeuchte: 64%
Luftdruck: 1028 hPa
Wolken: Teilweise bewölkt
Sichtbarkeit: 10 km
Trübung: Leicht bewölkt 762 m
Teilweise bewölkt 1372 m
2024/06/20 19:30 LPPD 201930Z 13007KT 100V160 9999 FEW025 SCT045 20/13 Q1028
 
LPCS - Cascais
Entfernung von der Station: SSW 77km
aktuell: 20/06/2024 20:30
Teilweise bewölkt
Teilweise bewölkt
 Wind aus N
Wind: N 28 km/h
Temperatur: 17°C
Taupunkt: 12°C
Luftfeuchte: 73%
Luftdruck: 1022 hPa
Wolken: Teilweise bewölkt
Sichtbarkeit: 10 km
Trübung: Teilweise bewölkt 732 m
2024/06/20 19:30 LPCS 201930Z 35015KT 9999 SCT024 17/12 Q1022
LPMR - Monte Real
Entfernung von der Station: N 55km
aktuell: 20/06/2024 20:00
Stark bewölkt
Stark bewölkt
 Wind aus N
Wind: N 26 km/h
Temperatur: 17°C
Taupunkt: 13°C
Luftfeuchte: 77%
Luftdruck: 1022 hPa
Wolken: Stark bewölkt
Sichtbarkeit: 10 km
Trübung: Stark bewölkt 488 m
2024/06/20 19:00 LPMR 201900Z 35014KT 9999 BKN016 17/13 Q1022

Phoenix Radar Flight Tracking

Map courtesy of flightradar24.com